sensor_id;sensor_type;location;lat;lon;timestamp;P1;durP1;ratioP1;P2;durP2;ratioP2
22675;SDS011;12521;43.310;21.876;2023-08-06T00:00:08;6.0;;;4.0;;
22675;SDS011;12521;43.310;21.876;2023-08-06T00:04:46;6.0;;;4.0;;
22675;SDS011;12521;43.310;21.876;2023-08-06T00:09:23;5.0;;;4.0;;
22675;SDS011;12521;43.310;21.876;2023-08-06T00:13:59;5.0;;;4.0;;
22675;SDS011;12521;43.310;21.876;2023-08-06T00:18:36;6.0;;;4.0;;
22675;SDS011;12521;43.310;21.876;2023-08-06T00:23:14;6.0;;;4.0;;
22675;SDS011;12521;43.310;21.876;2023-08-06T00:27:50;7.0;;;4.0;;
22675;SDS011;12521;43.310;21.876;2023-08-06T00:32:27;7.0;;;4.0;;
22675;SDS011;12521;43.310;21.876;2023-08-06T00:37:03;6.0;;;4.0;;
22675;SDS011;12521;43.310;21.876;2023-08-06T00:41:40;6.0;;;4.0;;
22675;SDS011;12521;43.310;21.876;2023-08-06T00:46:17;6.0;;;4.0;;
22675;SDS011;12521;43.310;21.876;2023-08-06T00:50:55;6.0;;;4.0;;
22675;SDS011;12521;43.310;21.876;2023-08-06T00:55:33;6.0;;;4.0;;
22675;SDS011;12521;43.310;21.876;2023-08-06T01:00:11;7.0;;;4.0;;
22675;SDS011;12521;43.310;21.876;2023-08-06T01:04:49;7.0;;;4.0;;
22675;SDS011;12521;43.310;21.876;2023-08-06T01:09:30;8.0;;;5.0;;
22675;SDS011;12521;43.310;21.876;2023-08-06T01:15:21;8.0;;;5.0;;
22675;SDS011;12521;43.310;21.876;2023-08-06T01:20:27;7.0;;;5.0;;
22675;SDS011;12521;43.310;21.876;2023-08-06T01:25:07;7.0;;;5.0;;
22675;SDS011;12521;43.310;21.876;2023-08-06T01:29:54;6.0;;;5.0;;
22675;SDS011;12521;43.310;21.876;2023-08-06T01:35:01;6.0;;;5.0;;
22675;SDS011;12521;43.310;21.876;2023-08-06T01:39:52;6.0;;;4.0;;
22675;SDS011;12521;43.310;21.876;2023-08-06T01:44:29;6.0;;;4.0;;
22675;SDS011;12521;43.310;21.876;2023-08-06T01:49:05;5.0;;;4.0;;
22675;SDS011;12521;43.310;21.876;2023-08-06T01:53:42;5.0;;;4.0;;
22675;SDS011;12521;43.310;21.876;2023-08-06T01:58:19;6.0;;;4.0;;
22675;SDS011;12521;43.310;21.876;2023-08-06T02:02:55;6.0;;;4.0;;
22675;SDS011;12521;43.310;21.876;2023-08-06T02:07:31;6.0;;;4.0;;
22675;SDS011;12521;43.310;21.876;2023-08-06T02:12:07;6.0;;;4.0;;
22675;SDS011;12521;43.310;21.876;2023-08-06T02:16:44;6.0;;;4.0;;
22675;SDS011;12521;43.310;21.876;2023-08-06T02:21:20;6.0;;;4.0;;
22675;SDS011;12521;43.310;21.876;2023-08-06T02:25:57;6.0;;;4.0;;
22675;SDS011;12521;43.310;21.876;2023-08-06T02:30:40;5.0;;;4.0;;
22675;SDS011;12521;43.310;21.876;2023-08-06T02:35:27;5.0;;;4.0;;
22675;SDS011;12521;43.310;21.876;2023-08-06T02:40:03;5.0;;;4.0;;
22675;SDS011;12521;43.310;21.876;2023-08-06T02:44:44;5.0;;;4.0;;
22675;SDS011;12521;43.310;21.876;2023-08-06T02:49:21;5.0;;;4.0;;
22675;SDS011;12521;43.310;21.876;2023-08-06T02:53:57;5.0;;;4.0;;
22675;SDS011;12521;43.310;21.876;2023-08-06T02:58:33;5.0;;;4.0;;
22675;SDS011;12521;43.310;21.876;2023-08-06T03:03:10;5.0;;;4.0;;
22675;SDS011;12521;43.310;21.876;2023-08-06T03:07:46;5.0;;;4.0;;
22675;SDS011;12521;43.310;21.876;2023-08-06T03:12:23;5.0;;;4.0;;
22675;SDS011;12521;43.310;21.876;2023-08-06T03:16:59;5.0;;;4.0;;
22675;SDS011;12521;43.310;21.876;2023-08-06T03:21:35;5.0;;;4.0;;
22675;SDS011;12521;43.310;21.876;2023-08-06T03:26:11;5.0;;;4.0;;
22675;SDS011;12521;43.310;21.876;2023-08-06T03:30:47;5.0;;;4.0;;
22675;SDS011;12521;43.310;21.876;2023-08-06T03:35:35;5.0;;;4.0;;
22675;SDS011;12521;43.310;21.876;2023-08-06T03:40:11;4.0;;;4.0;;
22675;SDS011;12521;43.310;21.876;2023-08-06T03:44:48;4.0;;;4.0;;
22675;SDS011;12521;43.310;21.876;2023-08-06T03:49:24;4.0;;;3.0;;
22675;SDS011;12521;43.310;21.876;2023-08-06T03:54:01;4.0;;;3.0;;
22675;SDS011;12521;43.310;21.876;2023-08-06T03:58:38;4.0;;;3.0;;
22675;SDS011;12521;43.310;21.876;2023-08-06T04:03:15;4.0;;;3.0;;
22675;SDS011;12521;43.310;21.876;2023-08-06T04:07:52;4.0;;;3.0;;
22675;SDS011;12521;43.310;21.876;2023-08-06T04:12:29;4.0;;;3.0;;
22675;SDS011;12521;43.310;21.876;2023-08-06T04:17:07;4.0;;;4.0;;
22675;SDS011;12521;43.310;21.876;2023-08-06T04:21:43;4.0;;;4.0;;
22675;SDS011;12521;43.310;21.876;2023-08-06T04:26:20;5.0;;;4.0;;
22675;SDS011;12521;43.310;21.876;2023-08-06T04:30:56;5.0;;;4.0;;
22675;SDS011;12521;43.310;21.876;2023-08-06T04:35:35;5.0;;;4.0;;
22675;SDS011;12521;43.310;21.876;2023-08-06T04:40:11;4.0;;;4.0;;
22675;SDS011;12521;43.310;21.876;2023-08-06T04:44:47;4.0;;;4.0;;
22675;SDS011;12521;43.310;21.876;2023-08-06T04:49:24;4.0;;;3.0;;
22675;SDS011;12521;43.310;21.876;2023-08-06T05:16:40;6.0;;;4.0;;
22675;SDS011;12521;43.310;21.876;2023-08-06T05:21:17;6.0;;;4.0;;
22675;SDS011;12521;43.310;21.876;2023-08-06T05:25:53;6.0;;;4.0;;
22675;SDS011;12521;43.310;21.876;2023-08-06T05:30:31;6.0;;;4.0;;
22675;SDS011;12521;43.310;21.876;2023-08-06T05:36:05;6.0;;;4.0;;
22675;SDS011;12521;43.310;21.876;2023-08-06T05:40:43;8.0;;;4.0;;
22675;SDS011;12521;43.310;21.876;2023-08-06T05:45:21;8.0;;;4.0;;
22675;SDS011;12521;43.310;21.876;2023-08-06T05:49:57;9.0;;;5.0;;
22675;SDS011;12521;43.310;21.876;2023-08-06T05:54:34;9.0;;;5.0;;
22675;SDS011;12521;43.310;21.876;2023-08-06T05:59:11;8.0;;;5.0;;
22675;SDS011;12521;43.310;21.876;2023-08-06T06:03:47;8.0;;;5.0;;
22675;SDS011;12521;43.310;21.876;2023-08-06T06:08:25;7.0;;;5.0;;
22675;SDS011;12521;43.310;21.876;2023-08-06T06:13:02;7.0;;;5.0;;
22675;SDS011;12521;43.310;21.876;2023-08-06T06:17:39;7.0;;;5.0;;
22675;SDS011;12521;43.310;21.876;2023-08-06T06:22:16;7.0;;;5.0;;
22675;SDS011;12521;43.310;21.876;2023-08-06T06:26:52;7.0;;;5.0;;
22675;SDS011;12521;43.310;21.876;2023-08-06T06:31:29;7.0;;;5.0;;
22675;SDS011;12521;43.310;21.876;2023-08-06T06:36:06;7.0;;;5.0;;
22675;SDS011;12521;43.310;21.876;2023-08-06T06:40:44;6.0;;;5.0;;
22675;SDS011;12521;43.310;21.876;2023-08-06T06:45:31;6.0;;;5.0;;
22675;SDS011;12521;43.310;21.876;2023-08-06T06:50:09;5.0;;;5.0;;
22675;SDS011;12521;43.310;21.876;2023-08-06T06:54:46;5.0;;;5.0;;
22675;SDS011;12521;43.310;21.876;2023-08-06T06:59:23;6.0;;;5.0;;
22675;SDS011;12521;43.310;21.876;2023-08-06T07:03:59;6.0;;;5.0;;
22675;SDS011;12521;43.310;21.876;2023-08-06T07:08:36;8.0;;;5.0;;
22675;SDS011;12521;43.310;21.876;2023-08-06T07:13:12;8.0;;;5.0;;
22675;SDS011;12521;43.310;21.876;2023-08-06T07:17:48;8.0;;;5.0;;
22675;SDS011;12521;43.310;21.876;2023-08-06T07:22:25;8.0;;;5.0;;
22675;SDS011;12521;43.310;21.876;2023-08-06T07:27:01;9.0;;;5.0;;
22675;SDS011;12521;43.310;21.876;2023-08-06T07:31:38;9.0;;;5.0;;
22675;SDS011;12521;43.310;21.876;2023-08-06T07:36:15;9.0;;;5.0;;
22675;SDS011;12521;43.310;21.876;2023-08-06T07:40:51;8.0;;;5.0;;
22675;SDS011;12521;43.310;21.876;2023-08-06T07:45:27;8.0;;;5.0;;
22675;SDS011;12521;43.310;21.876;2023-08-06T07:50:09;8.0;;;5.0;;
22675;SDS011;12521;43.310;21.876;2023-08-06T07:54:46;8.0;;;5.0;;
22675;SDS011;12521;43.310;21.876;2023-08-06T07:59:23;7.0;;;5.0;;
22675;SDS011;12521;43.310;21.876;2023-08-06T08:04:00;7.0;;;5.0;;
22675;SDS011;12521;43.310;21.876;2023-08-06T08:08:36;6.0;;;5.0;;
22675;SDS011;12521;43.310;21.876;2023-08-06T08:13:13;6.0;;;5.0;;
22675;SDS011;12521;43.310;21.876;2023-08-06T08:17:49;6.0;;;5.0;;
22675;SDS011;12521;43.310;21.876;2023-08-06T08:22:26;6.0;;;5.0;;
22675;SDS011;12521;43.310;21.876;2023-08-06T08:27:02;5.0;;;5.0;;
22675;SDS011;12521;43.310;21.876;2023-08-06T08:31:40;5.0;;;5.0;;
22675;SDS011;12521;43.310;21.876;2023-08-06T08:36:16;5.0;;;5.0;;
22675;SDS011;12521;43.310;21.876;2023-08-06T08:40:54;6.0;;;4.0;;
22675;SDS011;12521;43.310;21.876;2023-08-06T08:45:35;6.0;;;4.0;;
22675;SDS011;12521;43.310;21.876;2023-08-06T08:50:21;6.0;;;4.0;;
22675;SDS011;12521;43.310;21.876;2023-08-06T08:54:59;6.0;;;4.0;;
22675;SDS011;12521;43.310;21.876;2023-08-06T08:59:38;6.0;;;4.0;;
22675;SDS011;12521;43.310;21.876;2023-08-06T09:04:14;6.0;;;4.0;;
22675;SDS011;12521;43.310;21.876;2023-08-06T09:08:58;5.0;;;4.0;;
22675;SDS011;12521;43.310;21.876;2023-08-06T09:13:57;5.0;;;4.0;;
22675;SDS011;12521;43.310;21.876;2023-08-06T09:18:38;6.0;;;4.0;;
22675;SDS011;12521;43.310;21.876;2023-08-06T09:23:16;6.0;;;4.0;;
22675;SDS011;12521;43.310;21.876;2023-08-06T09:27:52;6.0;;;5.0;;
22675;SDS011;12521;43.310;21.876;2023-08-06T09:32:44;6.0;;;5.0;;
22675;SDS011;12521;43.310;21.876;2023-08-06T09:37:25;6.0;;;6.0;;
22675;SDS011;12521;43.310;21.876;2023-08-06T09:42:15;6.0;;;6.0;;
22675;SDS011;12521;43.310;21.876;2023-08-06T09:46:52;6.0;;;6.0;;
22675;SDS011;12521;43.310;21.876;2023-08-06T09:51:37;6.0;;;6.0;;
22675;SDS011;12521;43.310;21.876;2023-08-06T09:56:17;6.0;;;6.0;;
22675;SDS011;12521;43.310;21.876;2023-08-06T10:00:56;6.0;;;6.0;;
22675;SDS011;12521;43.310;21.876;2023-08-06T10:05:34;6.0;;;6.0;;
22675;SDS011;12521;43.310;21.876;2023-08-06T10:10:13;7.0;;;5.0;;
22675;SDS011;12521;43.310;21.876;2023-08-06T10:14:49;7.0;;;5.0;;
22675;SDS011;12521;43.310;21.876;2023-08-06T10:19:35;8.0;;;6.0;;
22675;SDS011;12521;43.310;21.876;2023-08-06T10:24:13;8.0;;;6.0;;
22675;SDS011;12521;43.310;21.876;2023-08-06T10:28:50;8.0;;;6.0;;
22675;SDS011;12521;43.310;21.876;2023-08-06T10:33:41;8.0;;;6.0;;
22675;SDS011;12521;43.310;21.876;2023-08-06T10:38:25;8.0;;;6.0;;
22675;SDS011;12521;43.310;21.876;2023-08-06T10:43:03;8.0;;;6.0;;
22675;SDS011;12521;43.310;21.876;2023-08-06T10:47:43;8.0;;;6.0;;
22675;SDS011;12521;43.310;21.876;2023-08-06T10:52:23;8.0;;;6.0;;
22675;SDS011;12521;43.310;21.876;2023-08-06T10:56:59;8.0;;;6.0;;
22675;SDS011;12521;43.310;21.876;2023-08-06T11:01:36;8.0;;;6.0;;
22675;SDS011;12521;43.310;21.876;2023-08-06T11:06:18;8.0;;;6.0;;
22675;SDS011;12521;43.310;21.876;2023-08-06T11:11:09;8.0;;;6.0;;
22675;SDS011;12521;43.310;21.876;2023-08-06T11:15:52;8.0;;;6.0;;
22675;SDS011;12521;43.310;21.876;2023-08-06T11:20:28;8.0;;;6.0;;
22675;SDS011;12521;43.310;21.876;2023-08-06T11:25:07;8.0;;;6.0;;
22675;SDS011;12521;43.310;21.876;2023-08-06T11:29:44;7.0;;;6.0;;
22675;SDS011;12521;43.310;21.876;2023-08-06T11:34:22;7.0;;;6.0;;
22675;SDS011;12521;43.310;21.876;2023-08-06T11:38:59;8.0;;;6.0;;
22675;SDS011;12521;43.310;21.876;2023-08-06T11:43:39;8.0;;;6.0;;
22675;SDS011;12521;43.310;21.876;2023-08-06T11:48:16;8.0;;;6.0;;
22675;SDS011;12521;43.310;21.876;2023-08-06T11:52:56;8.0;;;6.0;;
22675;SDS011;12521;43.310;21.876;2023-08-06T11:57:38;8.0;;;6.0;;
22675;SDS011;12521;43.310;21.876;2023-08-06T12:02:21;8.0;;;6.0;;
22675;SDS011;12521;43.310;21.876;2023-08-06T12:07:05;7.0;;;6.0;;
22675;SDS011;12521;43.310;21.876;2023-08-06T12:11:42;7.0;;;6.0;;
22675;SDS011;12521;43.310;21.876;2023-08-06T12:16:19;7.0;;;6.0;;
22675;SDS011;12521;43.310;21.876;2023-08-06T12:20:56;8.0;;;6.0;;
22675;SDS011;12521;43.310;21.876;2023-08-06T12:25:33;8.0;;;6.0;;
22675;SDS011;12521;43.310;21.876;2023-08-06T12:30:12;8.0;;;7.0;;
22675;SDS011;12521;43.310;21.876;2023-08-06T12:34:49;8.0;;;7.0;;
22675;SDS011;12521;43.310;21.876;2023-08-06T12:39:26;8.0;;;6.0;;
22675;SDS011;12521;43.310;21.876;2023-08-06T12:44:02;8.0;;;6.0;;
22675;SDS011;12521;43.310;21.876;2023-08-06T12:48:39;8.0;;;6.0;;
22675;SDS011;12521;43.310;21.876;2023-08-06T12:53:15;8.0;;;6.0;;
22675;SDS011;12521;43.310;21.876;2023-08-06T12:57:51;8.0;;;6.0;;
22675;SDS011;12521;43.310;21.876;2023-08-06T13:02:27;8.0;;;6.0;;
22675;SDS011;12521;43.310;21.876;2023-08-06T13:07:03;7.0;;;6.0;;
22675;SDS011;12521;43.310;21.876;2023-08-06T13:11:40;7.0;;;6.0;;
22675;SDS011;12521;43.310;21.876;2023-08-06T13:16:18;7.0;;;6.0;;
22675;SDS011;12521;43.310;21.876;2023-08-06T13:20:55;7.0;;;6.0;;
22675;SDS011;12521;43.310;21.876;2023-08-06T13:25:31;7.0;;;6.0;;
22675;SDS011;12521;43.310;21.876;2023-08-06T13:30:09;7.0;;;7.0;;
22675;SDS011;12521;43.310;21.876;2023-08-06T13:34:47;7.0;;;7.0;;
22675;SDS011;12521;43.310;21.876;2023-08-06T13:39:23;8.0;;;6.0;;
22675;SDS011;12521;43.310;21.876;2023-08-06T13:44:00;8.0;;;6.0;;
22675;SDS011;12521;43.310;21.876;2023-08-06T13:48:36;10.0;;;6.0;;
22675;SDS011;12521;43.310;21.876;2023-08-06T13:53:12;10.0;;;6.0;;
22675;SDS011;12521;43.310;21.876;2023-08-06T13:57:49;9.0;;;6.0;;
22675;SDS011;12521;43.310;21.876;2023-08-06T14:02:25;9.0;;;6.0;;
22675;SDS011;12521;43.310;21.876;2023-08-06T14:07:02;8.0;;;7.0;;
22675;SDS011;12521;43.310;21.876;2023-08-06T14:11:39;8.0;;;7.0;;
22675;SDS011;12521;43.310;21.876;2023-08-06T14:16:16;8.0;;;7.0;;
22675;SDS011;12521;43.310;21.876;2023-08-06T14:20:53;10.0;;;7.0;;
22675;SDS011;12521;43.310;21.876;2023-08-06T14:25:29;10.0;;;7.0;;
22675;SDS011;12521;43.310;21.876;2023-08-06T14:30:07;11.0;;;7.0;;
22675;SDS011;12521;43.310;21.876;2023-08-06T14:34:47;11.0;;;7.0;;
22675;SDS011;12521;43.310;21.876;2023-08-06T14:39:24;10.0;;;8.0;;
22675;SDS011;12521;43.310;21.876;2023-08-06T14:44:00;10.0;;;8.0;;
22675;SDS011;12521;43.310;21.876;2023-08-06T14:48:37;10.0;;;9.0;;
22675;SDS011;12521;43.310;21.876;2023-08-06T14:53:13;10.0;;;9.0;;
22675;SDS011;12521;43.310;21.876;2023-08-06T14:57:50;12.0;;;10.0;;
22675;SDS011;12521;43.310;21.876;2023-08-06T15:02:28;12.0;;;10.0;;
22675;SDS011;12521;43.310;21.876;2023-08-06T15:07:06;13.0;;;11.0;;
22675;SDS011;12521;43.310;21.876;2023-08-06T15:11:42;13.0;;;11.0;;
22675;SDS011;12521;43.310;21.876;2023-08-06T15:16:19;13.0;;;11.0;;
22675;SDS011;12521;43.310;21.876;2023-08-06T15:20:56;8.0;;;6.0;;
22675;SDS011;12521;43.310;21.876;2023-08-06T15:25:32;8.0;;;6.0;;
22675;SDS011;12521;43.310;21.876;2023-08-06T15:30:09;4.0;;;2.0;;
22675;SDS011;12521;43.310;21.876;2023-08-06T15:34:47;4.0;;;2.0;;
22675;SDS011;12521;43.310;21.876;2023-08-06T15:39:23;4.0;;;2.0;;
22675;SDS011;12521;43.310;21.876;2023-08-06T15:43:59;4.0;;;2.0;;
22675;SDS011;12521;43.310;21.876;2023-08-06T15:48:35;4.0;;;3.0;;
22675;SDS011;12521;43.310;21.876;2023-08-06T15:53:11;4.0;;;3.0;;
22675;SDS011;12521;43.310;21.876;2023-08-06T15:57:48;4.0;;;2.0;;
22675;SDS011;12521;43.310;21.876;2023-08-06T16:02:24;4.0;;;2.0;;
22675;SDS011;12521;43.310;21.876;2023-08-06T16:07:01;3.0;;;2.0;;
22675;SDS011;12521;43.310;21.876;2023-08-06T16:11:39;3.0;;;2.0;;
22675;SDS011;12521;43.310;21.876;2023-08-06T16:16:16;3.0;;;2.0;;
22675;SDS011;12521;43.310;21.876;2023-08-06T16:20:53;4.0;;;2.0;;
22675;SDS011;12521;43.310;21.876;2023-08-06T16:25:29;4.0;;;2.0;;
22675;SDS011;12521;43.310;21.876;2023-08-06T16:30:07;4.0;;;3.0;;
22675;SDS011;12521;43.310;21.876;2023-08-06T16:34:46;4.0;;;3.0;;
22675;SDS011;12521;43.310;21.876;2023-08-06T16:39:22;4.0;;;3.0;;
22675;SDS011;12521;43.310;21.876;2023-08-06T16:43:59;4.0;;;3.0;;
22675;SDS011;12521;43.310;21.876;2023-08-06T16:48:35;4.0;;;3.0;;
22675;SDS011;12521;43.310;21.876;2023-08-06T16:53:12;4.0;;;3.0;;
22675;SDS011;12521;43.310;21.876;2023-08-06T16:57:48;4.0;;;2.0;;
22675;SDS011;12521;43.310;21.876;2023-08-06T17:02:25;4.0;;;2.0;;
22675;SDS011;12521;43.310;21.876;2023-08-06T17:07:01;3.0;;;2.0;;
22675;SDS011;12521;43.310;21.876;2023-08-06T17:11:39;3.0;;;2.0;;
22675;SDS011;12521;43.310;21.876;2023-08-06T17:16:17;3.0;;;2.0;;
22675;SDS011;12521;43.310;21.876;2023-08-06T17:20:53;4.0;;;4.0;;
22675;SDS011;12521;43.310;21.876;2023-08-06T17:25:30;4.0;;;4.0;;
22675;SDS011;12521;43.310;21.876;2023-08-06T17:30:08;6.0;;;5.0;;
22675;SDS011;12521;43.310;21.876;2023-08-06T17:34:46;6.0;;;5.0;;
22675;SDS011;12521;43.310;21.876;2023-08-06T17:39:23;7.0;;;5.0;;
22675;SDS011;12521;43.310;21.876;2023-08-06T17:43:59;7.0;;;5.0;;
22675;SDS011;12521;43.310;21.876;2023-08-06T17:48:36;8.0;;;5.0;;
22675;SDS011;12521;43.310;21.876;2023-08-06T17:53:13;8.0;;;5.0;;
22675;SDS011;12521;43.310;21.876;2023-08-06T17:57:49;6.0;;;4.0;;
22675;SDS011;12521;43.310;21.876;2023-08-06T18:02:25;6.0;;;4.0;;
22675;SDS011;12521;43.310;21.876;2023-08-06T18:07:02;4.0;;;3.0;;
22675;SDS011;12521;43.310;21.876;2023-08-06T18:11:40;4.0;;;3.0;;
22675;SDS011;12521;43.310;21.876;2023-08-06T18:16:17;4.0;;;3.0;;
22675;SDS011;12521;43.310;21.876;2023-08-06T18:20:53;4.0;;;3.0;;
22675;SDS011;12521;43.310;21.876;2023-08-06T18:25:29;4.0;;;3.0;;
22675;SDS011;12521;43.310;21.876;2023-08-06T18:30:07;4.0;;;3.0;;
22675;SDS011;12521;43.310;21.876;2023-08-06T18:34:46;4.0;;;3.0;;
22675;SDS011;12521;43.310;21.876;2023-08-06T18:39:23;4.0;;;3.0;;
22675;SDS011;12521;43.310;21.876;2023-08-06T18:43:59;4.0;;;3.0;;
22675;SDS011;12521;43.310;21.876;2023-08-06T18:48:36;4.0;;;3.0;;
22675;SDS011;12521;43.310;21.876;2023-08-06T18:53:12;4.0;;;3.0;;
22675;SDS011;12521;43.310;21.876;2023-08-06T18:57:48;4.0;;;3.0;;
22675;SDS011;12521;43.310;21.876;2023-08-06T19:02:25;4.0;;;3.0;;
22675;SDS011;12521;43.310;21.876;2023-08-06T19:07:03;5.0;;;3.0;;
22675;SDS011;12521;43.310;21.876;2023-08-06T19:11:40;5.0;;;3.0;;
22675;SDS011;12521;43.310;21.876;2023-08-06T19:16:17;5.0;;;3.0;;
22675;SDS011;12521;43.310;21.876;2023-08-06T19:20:55;4.0;;;3.0;;
22675;SDS011;12521;43.310;21.876;2023-08-06T19:25:40;4.0;;;3.0;;
22675;SDS011;12521;43.310;21.876;2023-08-06T19:30:18;3.0;;;3.0;;
22675;SDS011;12521;43.310;21.876;2023-08-06T19:34:55;3.0;;;3.0;;
22675;SDS011;12521;43.310;21.876;2023-08-06T19:39:31;4.0;;;2.0;;
22675;SDS011;12521;43.310;21.876;2023-08-06T19:44:08;4.0;;;2.0;;
22675;SDS011;12521;43.310;21.876;2023-08-06T19:48:44;4.0;;;2.0;;
22675;SDS011;12521;43.310;21.876;2023-08-06T19:53:21;4.0;;;2.0;;
22675;SDS011;12521;43.310;21.876;2023-08-06T19:57:58;4.0;;;2.0;;
22675;SDS011;12521;43.310;21.876;2023-08-06T20:02:35;4.0;;;2.0;;
22675;SDS011;12521;43.310;21.876;2023-08-06T20:07:12;4.0;;;3.0;;
22675;SDS011;12521;43.310;21.876;2023-08-06T20:11:48;4.0;;;3.0;;
22675;SDS011;12521;43.310;21.876;2023-08-06T20:16:25;4.0;;;3.0;;
22675;SDS011;12521;43.310;21.876;2023-08-06T20:21:02;4.0;;;4.0;;
22675;SDS011;12521;43.310;21.876;2023-08-06T20:25:41;4.0;;;4.0;;
22675;SDS011;12521;43.310;21.876;2023-08-06T20:30:17;5.0;;;4.0;;
22675;SDS011;12521;43.310;21.876;2023-08-06T20:34:54;5.0;;;4.0;;
22675;SDS011;12521;43.310;21.876;2023-08-06T20:39:30;5.0;;;4.0;;
22675;SDS011;12521;43.310;21.876;2023-08-06T20:44:07;5.0;;;4.0;;
22675;SDS011;12521;43.310;21.876;2023-08-06T20:48:43;5.0;;;4.0;;
22675;SDS011;12521;43.310;21.876;2023-08-06T20:53:19;5.0;;;4.0;;
22675;SDS011;12521;43.310;21.876;2023-08-06T20:57:55;5.0;;;4.0;;
22675;SDS011;12521;43.310;21.876;2023-08-06T21:02:31;5.0;;;4.0;;
22675;SDS011;12521;43.310;21.876;2023-08-06T21:07:07;5.0;;;4.0;;
22675;SDS011;12521;43.310;21.876;2023-08-06T21:11:44;5.0;;;4.0;;
22675;SDS011;12521;43.310;21.876;2023-08-06T21:16:20;5.0;;;4.0;;
22675;SDS011;12521;43.310;21.876;2023-08-06T21:20:57;4.0;;;4.0;;
22675;SDS011;12521;43.310;21.876;2023-08-06T21:25:37;4.0;;;4.0;;
22675;SDS011;12521;43.310;21.876;2023-08-06T21:30:13;4.0;;;4.0;;
22675;SDS011;12521;43.310;21.876;2023-08-06T21:34:50;4.0;;;4.0;;
22675;SDS011;12521;43.310;21.876;2023-08-06T21:39:27;4.0;;;4.0;;
22675;SDS011;12521;43.310;21.876;2023-08-06T21:44:04;4.0;;;4.0;;
22675;SDS011;12521;43.310;21.876;2023-08-06T21:48:44;4.0;;;3.0;;
22675;SDS011;12521;43.310;21.876;2023-08-06T21:53:25;4.0;;;3.0;;
22675;SDS011;12521;43.310;21.876;2023-08-06T21:58:01;4.0;;;3.0;;
22675;SDS011;12521;43.310;21.876;2023-08-06T22:02:38;4.0;;;3.0;;
22675;SDS011;12521;43.310;21.876;2023-08-06T22:07:14;4.0;;;3.0;;
22675;SDS011;12521;43.310;21.876;2023-08-06T22:11:51;4.0;;;3.0;;
22675;SDS011;12521;43.310;21.876;2023-08-06T22:16:27;4.0;;;3.0;;
22675;SDS011;12521;43.310;21.876;2023-08-06T22:21:03;4.0;;;3.0;;
22675;SDS011;12521;43.310;21.876;2023-08-06T22:25:40;4.0;;;3.0;;
22675;SDS011;12521;43.310;21.876;2023-08-06T22:30:17;4.0;;;3.0;;
22675;SDS011;12521;43.310;21.876;2023-08-06T22:34:54;4.0;;;3.0;;
22675;SDS011;12521;43.310;21.876;2023-08-06T22:39:30;4.0;;;3.0;;
22675;SDS011;12521;43.310;21.876;2023-08-06T22:44:07;4.0;;;3.0;;
22675;SDS011;12521;43.310;21.876;2023-08-06T22:48:43;3.0;;;3.0;;
22675;SDS011;12521;43.310;21.876;2023-08-06T22:53:19;3.0;;;3.0;;
22675;SDS011;12521;43.310;21.876;2023-08-06T22:57:56;4.0;;;4.0;;
22675;SDS011;12521;43.310;21.876;2023-08-06T23:02:32;4.0;;;4.0;;
22675;SDS011;12521;43.310;21.876;2023-08-06T23:07:09;4.0;;;4.0;;
22675;SDS011;12521;43.310;21.876;2023-08-06T23:11:45;4.0;;;4.0;;
22675;SDS011;12521;43.310;21.876;2023-08-06T23:16:21;4.0;;;4.0;;
22675;SDS011;12521;43.310;21.876;2023-08-06T23:20:58;5.0;;;4.0;;
22675;SDS011;12521;43.310;21.876;2023-08-06T23:25:34;5.0;;;4.0;;
22675;SDS011;12521;43.310;21.876;2023-08-06T23:30:12;6.0;;;4.0;;
22675;SDS011;12521;43.310;21.876;2023-08-06T23:34:49;6.0;;;4.0;;
22675;SDS011;12521;43.310;21.876;2023-08-06T23:39:25;6.0;;;4.0;;
22675;SDS011;12521;43.310;21.876;2023-08-06T23:44:02;6.0;;;4.0;;
22675;SDS011;12521;43.310;21.876;2023-08-06T23:48:39;6.0;;;3.0;;
22675;SDS011;12521;43.310;21.876;2023-08-06T23:53:15;6.0;;;3.0;;
22675;SDS011;12521;43.310;21.876;2023-08-06T23:57:52;5.0;;;3.0;;
